createdAt,value
2023-01-15T00:01:30.916Z,5.47
2023-01-15T00:04:03.936Z,5.50
2023-01-15T00:06:34.219Z,4.30
2023-01-15T00:09:04.443Z,5.70
2023-01-15T00:11:34.428Z,5.68
2023-01-15T00:14:04.261Z,4.68
2023-01-15T00:16:34.980Z,5.07
2023-01-15T00:21:37.683Z,5.40
2023-01-15T00:24:25.144Z,5.32
2023-01-15T00:27:11.661Z,5.05
2023-01-15T00:29:41.296Z,5.72
2023-01-15T00:32:12.076Z,5.07
2023-01-15T00:34:42.102Z,6.03
2023-01-15T00:37:11.386Z,4.93
2023-01-15T00:39:40.998Z,6.07
2023-01-15T00:42:11.577Z,4.57
2023-01-15T00:44:41.493Z,5.10
2023-01-15T00:47:15.227Z,5.35
2023-01-15T00:49:45.511Z,6.55
2023-01-15T00:52:14.980Z,4.57
2023-01-15T00:54:45.350Z,5.45
2023-01-15T00:57:14.610Z,5.13
2023-01-15T00:59:44.269Z,5.57
2023-01-15T01:02:15.443Z,5.13
2023-01-15T01:04:45.499Z,4.95
2023-01-15T01:07:15.126Z,4.85
2023-01-15T01:09:44.933Z,5.20
2023-01-15T01:12:14.224Z,5.30
2023-01-15T01:14:44.922Z,4.70
2023-01-15T01:17:15.869Z,4.90
2023-01-15T01:19:45.721Z,4.10
2023-01-15T01:22:15.542Z,4.22
2023-01-15T01:24:45.251Z,3.97
2023-01-15T01:27:15.130Z,4.70
2023-01-15T01:29:45.015Z,3.95
2023-01-15T01:32:15.887Z,3.38
2023-01-15T01:34:45.680Z,3.05
2023-01-15T01:37:14.949Z,3.70
2023-01-15T01:39:44.652Z,3.15
2023-01-15T01:42:15.835Z,3.08
2023-01-15T01:45:04.604Z,3.10
2023-01-15T01:47:36.339Z,3.17
2023-01-15T01:50:10.992Z,2.88
2023-01-15T01:52:44.203Z,3.40
2023-01-15T01:55:15.430Z,3.80
2023-01-15T01:57:45.847Z,3.15
2023-01-15T02:02:49.380Z,2.70
2023-01-15T02:05:29.610Z,2.30
2023-01-15T02:07:59.113Z,3.03
2023-01-15T02:10:29.741Z,2.72
2023-01-15T02:13:06.260Z,3.25
2023-01-15T02:15:40.384Z,2.85
2023-01-15T02:18:18.497Z,3.03
2023-01-15T02:20:52.886Z,2.78
2023-01-15T02:23:51.902Z,2.92
2023-01-15T02:26:58.956Z,2.45
2023-01-15T02:29:36.622Z,2.40
2023-01-15T02:32:11.260Z,2.55
2023-01-15T02:34:45.138Z,2.10
2023-01-15T02:37:18.947Z,2.60
2023-01-15T02:39:51.257Z,2.50
2023-01-15T02:42:22.290Z,2.78
2023-01-15T02:44:55.950Z,2.90
2023-01-15T02:47:28.236Z,2.95
2023-01-15T02:50:01.826Z,2.78
2023-01-15T02:52:35.990Z,2.20
2023-01-15T02:55:09.509Z,2.53
2023-01-15T02:57:42.929Z,2.53
2023-01-15T03:00:17.099Z,2.35
2023-01-15T03:02:51.513Z,2.10
2023-01-15T03:05:25.725Z,1.98
2023-01-15T03:07:59.017Z,1.75
2023-01-15T03:10:35.929Z,2.20
2023-01-15T03:13:08.686Z,2.05
2023-01-15T03:16:06.208Z,1.80
2023-01-15T03:18:42.750Z,2.13
2023-01-15T03:21:15.592Z,2.10
2023-01-15T03:23:51.279Z,2.28
2023-01-15T03:26:20.723Z,2.15
2023-01-15T03:28:51.559Z,2.05
2023-01-15T03:31:22.736Z,2.05
2023-01-15T03:33:52.554Z,2.45
2023-01-15T03:36:21.921Z,2.47
2023-01-15T03:38:52.797Z,1.90
2023-01-15T03:41:31.420Z,1.85
2023-01-15T03:44:12.545Z,2.15
2023-01-15T03:46:59.866Z,1.80
2023-01-15T03:49:42.251Z,1.58
2023-01-15T03:52:18.593Z,2.03
2023-01-15T03:54:53.202Z,2.05
2023-01-15T03:57:29.831Z,1.27
2023-01-15T04:00:02.806Z,1.50
2023-01-15T04:02:33.808Z,3.05
2023-01-15T04:05:04.430Z,1.85
2023-01-15T04:07:34.409Z,1.98
2023-01-15T04:10:05.009Z,1.75
2023-01-15T04:12:34.492Z,2.30
2023-01-15T04:15:04.400Z,1.98
2023-01-15T04:17:35.153Z,2.97
2023-01-15T04:20:05.466Z,2.45
2023-01-15T04:22:36.383Z,2.33
2023-01-15T04:25:07.149Z,1.90
2023-01-15T04:27:36.650Z,1.65
2023-01-15T04:30:07.154Z,2.70
2023-01-15T04:32:37.866Z,2.00
2023-01-15T04:35:08.545Z,1.75
2023-01-15T04:37:38.043Z,2.25
2023-01-15T04:40:09.143Z,1.60
2023-01-15T04:43:10.163Z,1.80
2023-01-15T04:45:40.104Z,1.73
2023-01-15T04:48:10.955Z,1.67
2023-01-15T04:50:40.889Z,2.28
2023-01-15T04:53:10.144Z,2.10
2023-01-15T04:55:39.796Z,2.30
2023-01-15T04:58:09.317Z,1.58
2023-01-15T05:00:39.238Z,1.93
2023-01-15T05:03:09.980Z,2.10
2023-01-15T05:05:39.596Z,3.13
2023-01-15T05:08:08.830Z,1.88
2023-01-15T05:10:38.537Z,2.10
2023-01-15T05:13:08.031Z,1.90
2023-01-15T05:15:38.783Z,2.03
2023-01-15T05:18:09.695Z,2.90
2023-01-15T05:20:39.622Z,1.77
2023-01-15T05:23:09.015Z,1.30
2023-01-15T05:25:39.508Z,1.60
2023-01-15T05:28:09.258Z,1.80
2023-01-15T05:30:38.885Z,1.33
2023-01-15T05:33:09.595Z,1.90
2023-01-15T05:38:08.215Z,1.20
2023-01-15T05:40:38.781Z,1.70
2023-01-15T05:43:08.242Z,1.20
2023-01-15T05:45:37.906Z,1.60
2023-01-15T05:48:07.597Z,1.25
2023-01-15T05:50:38.749Z,1.67
2023-01-15T05:53:09.002Z,1.48
2023-01-15T05:58:08.059Z,1.10
2023-01-15T06:00:37.839Z,1.45
2023-01-15T06:03:07.199Z,1.25
2023-01-15T06:05:38.318Z,1.75
2023-01-15T06:08:08.004Z,1.80
2023-01-15T06:10:37.954Z,1.70
2023-01-15T06:13:07.236Z,1.42
2023-01-15T06:15:36.848Z,1.10
2023-01-15T06:18:06.614Z,1.38
2023-01-15T06:20:39.212Z,1.20
2023-01-15T06:23:08.629Z,1.40
2023-01-15T06:25:38.880Z,1.30
2023-01-15T06:28:09.231Z,1.35
2023-01-15T06:30:40.947Z,1.42
2023-01-15T06:33:10.423Z,1.55
2023-01-15T06:35:41.691Z,1.27
2023-01-15T06:38:10.907Z,1.45
2023-01-15T06:40:40.605Z,2.38
2023-01-15T06:43:28.447Z,1.60
2023-01-15T06:46:16.462Z,1.90
2023-01-15T06:48:47.744Z,1.63
2023-01-15T06:51:21.474Z,1.45
2023-01-15T06:53:50.903Z,1.25
2023-01-15T06:56:20.935Z,1.57
2023-01-15T06:58:50.387Z,0.90
2023-01-15T07:01:20.391Z,1.23
2023-01-15T07:03:49.729Z,1.10
2023-01-15T07:06:20.997Z,1.25
2023-01-15T07:08:50.388Z,1.30
2023-01-15T07:11:20.007Z,1.13
2023-01-15T07:13:49.723Z,1.10
2023-01-15T07:16:29.159Z,1.00
2023-01-15T07:18:58.908Z,0.75
2023-01-15T07:21:30.628Z,1.25
2023-01-15T07:24:01.540Z,1.02
2023-01-15T07:26:31.212Z,1.10
2023-01-15T07:29:00.514Z,1.00
2023-01-15T07:31:30.346Z,1.20
2023-01-15T07:33:59.782Z,1.10
2023-01-15T07:36:30.965Z,0.95
2023-01-15T07:39:00.734Z,1.20
2023-01-15T07:41:48.486Z,1.33
2023-01-15T07:44:34.851Z,1.05
2023-01-15T07:47:22.383Z,0.77
2023-01-15T07:49:55.702Z,0.90
2023-01-15T07:52:26.883Z,0.80
2023-01-15T07:54:56.166Z,1.27
2023-01-15T07:57:26.578Z,1.42
2023-01-15T07:59:56.361Z,0.98
2023-01-15T08:02:25.986Z,1.53
2023-01-15T08:04:55.609Z,0.60
2023-01-15T08:07:26.867Z,0.30
2023-01-15T08:09:56.318Z,0.52
2023-01-15T08:12:43.094Z,0.30
2023-01-15T08:15:15.658Z,0.30
2023-01-15T08:17:46.896Z,0.25
2023-01-15T08:20:19.141Z,0.40
2023-01-15T08:22:50.777Z,0.50
2023-01-15T08:25:21.763Z,0.65
2023-01-15T08:27:51.753Z,0.70
2023-01-15T08:30:23.092Z,0.60
2023-01-15T08:32:53.404Z,0.93
2023-01-15T08:35:22.715Z,0.70
2023-01-15T08:37:54.291Z,0.52
2023-01-15T08:40:23.695Z,0.55
2023-01-15T08:42:55.642Z,0.82
2023-01-15T08:45:26.568Z,0.60
2023-01-15T08:47:58.726Z,1.50
2023-01-15T08:50:28.211Z,0.82
2023-01-15T08:52:59.525Z,2.13
2023-01-15T08:57:58.141Z,0.82
2023-01-15T09:00:28.238Z,0.80
2023-01-15T09:02:58.079Z,0.88
2023-01-15T09:05:28.409Z,0.95
2023-01-15T09:07:59.939Z,0.82
2023-01-15T09:10:29.698Z,0.65
2023-01-15T09:13:02.471Z,1.17
2023-01-15T09:15:33.813Z,1.10
2023-01-15T09:18:03.501Z,0.85
2023-01-15T09:20:34.144Z,0.90
2023-01-15T09:25:34.278Z,1.20
2023-01-15T09:28:04.096Z,1.67
2023-01-15T09:30:33.947Z,1.70
2023-01-15T09:33:03.606Z,1.90
2023-01-15T09:35:32.888Z,3.00
2023-01-15T09:38:02.736Z,2.92
2023-01-15T09:40:45.234Z,2.08
2023-01-15T09:43:25.521Z,2.03
2023-01-15T09:45:59.850Z,2.78
2023-01-15T09:48:42.829Z,2.58
2023-01-15T09:51:22.859Z,1.60
2023-01-15T09:54:05.807Z,2.30
2023-01-15T09:56:39.830Z,3.08
2023-01-15T09:59:22.268Z,2.97
2023-01-15T10:01:52.961Z,2.53
2023-01-15T10:04:33.717Z,2.08
2023-01-15T10:07:13.234Z,2.28
2023-01-15T10:09:44.042Z,2.15
2023-01-15T10:12:36.923Z,3.45
2023-01-15T10:15:27.041Z,2.90
2023-01-15T10:17:58.804Z,2.38
2023-01-15T10:20:51.259Z,2.33
2023-01-15T10:23:35.513Z,1.75
2023-01-15T10:26:18.053Z,2.50
2023-01-15T10:29:00.184Z,2.55
2023-01-15T10:31:51.826Z,2.28
2023-01-15T10:34:42.198Z,3.15
2023-01-15T10:37:17.743Z,2.20
2023-01-15T10:39:54.722Z,2.42
2023-01-15T10:42:38.683Z,3.20
2023-01-15T10:45:16.663Z,2.33
2023-01-15T10:47:50.516Z,2.20
2023-01-15T10:50:21.666Z,2.40
2023-01-15T10:52:53.858Z,2.88
2023-01-15T10:55:30.077Z,2.35
2023-01-15T10:58:10.137Z,2.13
2023-01-15T11:00:42.391Z,2.58
2023-01-15T11:03:18.481Z,2.35
2023-01-15T11:05:48.099Z,2.28
2023-01-15T11:09:06.375Z,1.80
2023-01-15T11:11:23.790Z,1.88
2023-01-15T11:14:14.579Z,1.85
2023-01-15T11:17:03.507Z,1.95
2023-01-15T11:19:40.154Z,2.10
2023-01-15T11:22:12.661Z,2.03
2023-01-15T11:24:49.887Z,1.58
2023-01-15T11:27:21.755Z,2.00
2023-01-15T11:29:55.286Z,2.00
2023-01-15T11:32:31.977Z,1.60
2023-01-15T11:35:03.496Z,1.70
2023-01-15T11:40:08.305Z,1.67
2023-01-15T11:42:57.199Z,3.03
2023-01-15T11:45:44.484Z,1.38
2023-01-15T11:48:35.774Z,1.17
2023-01-15T11:51:09.256Z,1.23
2023-01-15T11:53:43.666Z,1.73
2023-01-15T11:56:17.422Z,1.08
2023-01-15T11:58:50.554Z,1.00
2023-01-15T12:01:26.797Z,1.10
2023-01-15T12:04:00.262Z,1.77
2023-01-15T12:06:31.603Z,1.15
2023-01-15T12:09:07.971Z,1.10
2023-01-15T12:11:52.445Z,1.20
2023-01-15T12:14:40.779Z,0.90
2023-01-15T12:17:24.630Z,0.80
2023-01-15T12:20:04.581Z,0.73
2023-01-15T12:22:52.669Z,0.80
2023-01-15T12:25:36.510Z,1.27
2023-01-15T12:28:12.019Z,1.20
2023-01-15T12:30:50.759Z,1.40
2023-01-15T12:33:27.773Z,1.48
2023-01-15T12:36:03.077Z,1.00
2023-01-15T12:38:45.954Z,1.67
2023-01-15T12:41:19.090Z,1.15
2023-01-15T12:44:12.454Z,1.20
2023-01-15T12:46:44.571Z,1.35
2023-01-15T12:49:34.176Z,1.10
2023-01-15T12:52:11.229Z,1.20
2023-01-15T12:54:49.442Z,1.50
2023-01-15T12:57:24.821Z,2.17
2023-01-15T12:59:59.746Z,1.90
2023-01-15T13:02:38.827Z,1.83
2023-01-15T13:05:19.697Z,1.73
2023-01-15T13:07:56.387Z,2.15
2023-01-15T13:10:29.766Z,2.35
2023-01-15T13:13:16.889Z,1.30
2023-01-15T13:15:57.245Z,1.58
2023-01-15T13:18:33.230Z,1.50
2023-01-15T13:21:07.820Z,2.08
2023-01-15T13:23:51.639Z,1.83
2023-01-15T13:26:38.794Z,1.88
2023-01-15T13:29:19.874Z,1.33
2023-01-15T13:31:58.947Z,1.60
2023-01-15T13:34:38.589Z,1.50
2023-01-15T13:37:20.712Z,1.80
2023-01-15T13:39:53.017Z,1.52
2023-01-15T13:42:34.727Z,1.67
2023-01-15T13:45:27.937Z,2.10
2023-01-15T13:48:04.316Z,1.50
2023-01-15T13:50:37.425Z,4.07
2023-01-15T13:53:17.147Z,2.67
2023-01-15T13:55:56.892Z,1.85
2023-01-15T13:58:29.400Z,2.40
2023-01-15T14:01:24.051Z,2.10
2023-01-15T14:04:06.703Z,1.90
2023-01-15T14:06:41.374Z,3.65
2023-01-15T14:09:14.643Z,1.70
2023-01-15T14:12:02.667Z,1.80
2023-01-15T14:14:53.268Z,2.08
2023-01-15T14:17:59.344Z,1.63
2023-01-15T14:20:47.670Z,1.77
2023-01-15T14:23:33.294Z,1.83
2023-01-15T14:26:12.069Z,2.67
2023-01-15T14:29:07.801Z,1.90
2023-01-15T14:31:58.868Z,2.15
2023-01-15T14:34:30.566Z,2.22
2023-01-15T14:37:04.619Z,1.48
2023-01-15T14:39:39.479Z,1.55
2023-01-15T14:42:32.657Z,1.77
2023-01-15T14:45:07.943Z,2.63
2023-01-15T14:47:47.324Z,1.27
2023-01-15T14:50:31.562Z,2.08
2023-01-15T14:53:08.521Z,1.90
2023-01-15T14:55:43.948Z,2.33
2023-01-15T14:58:28.679Z,2.00
2023-01-15T15:01:06.470Z,1.77
2023-01-15T15:03:41.538Z,1.58
2023-01-15T15:06:15.437Z,3.97
2023-01-15T15:08:46.402Z,1.42
2023-01-15T15:11:41.361Z,1.75
2023-01-15T15:14:14.513Z,1.77
2023-01-15T15:16:50.002Z,2.33
2023-01-15T15:19:27.897Z,2.42
2023-01-15T15:22:00.242Z,1.48
2023-01-15T15:24:35.406Z,1.80
2023-01-15T15:27:31.580Z,1.50
2023-01-15T15:30:06.776Z,1.92
2023-01-15T15:32:40.522Z,1.63
2023-01-15T15:35:27.138Z,1.90
2023-01-15T15:37:57.667Z,1.88
2023-01-15T15:43:28.515Z,2.30
2023-01-15T15:46:16.570Z,2.60
2023-01-15T15:48:53.565Z,2.40
2023-01-15T15:51:34.835Z,1.85
2023-01-15T15:54:16.999Z,2.00
2023-01-15T15:56:55.744Z,2.08
2023-01-15T15:59:34.359Z,1.98
2023-01-15T16:02:17.403Z,2.50
2023-01-15T16:04:49.933Z,2.50
2023-01-15T16:07:27.048Z,2.22
2023-01-15T16:10:00.232Z,2.25
2023-01-15T16:12:32.886Z,1.90
2023-01-15T16:15:03.182Z,2.33
2023-01-15T16:17:33.650Z,2.70
2023-01-15T16:20:05.149Z,2.03
2023-01-15T16:22:35.421Z,2.67
2023-01-15T16:25:05.719Z,2.20
2023-01-15T16:27:37.507Z,2.42
2023-01-15T16:30:07.781Z,2.20
2023-01-15T16:32:46.435Z,2.45
2023-01-15T16:35:23.545Z,2.20
2023-01-15T16:37:56.925Z,2.35
2023-01-15T16:40:32.103Z,2.10
2023-01-15T16:43:09.530Z,2.22
2023-01-15T16:45:42.606Z,1.77
2023-01-15T16:48:27.632Z,1.77
2023-01-15T16:50:58.808Z,2.28
2023-01-15T16:53:39.177Z,2.22
2023-01-15T16:56:28.163Z,1.85
2023-01-15T16:58:57.973Z,2.28
2023-01-15T17:01:36.862Z,1.98
2023-01-15T17:04:25.980Z,1.92
2023-01-15T17:07:03.127Z,1.83
2023-01-15T17:09:36.293Z,2.15
2023-01-15T17:12:10.971Z,1.88
2023-01-15T17:14:40.699Z,2.95
2023-01-15T17:17:25.656Z,1.90
2023-01-15T17:19:58.947Z,1.70
2023-01-15T17:22:32.686Z,1.20
2023-01-15T17:25:03.541Z,1.40
2023-01-15T17:30:03.399Z,1.52
2023-01-15T17:32:36.431Z,1.73
2023-01-15T17:35:06.927Z,1.67
2023-01-15T17:37:37.883Z,2.23
2023-01-15T17:40:09.892Z,2.30
2023-01-15T17:42:39.753Z,2.80
2023-01-15T17:45:17.830Z,2.03
2023-01-15T17:47:47.699Z,1.75
2023-01-15T17:50:19.107Z,1.98
2023-01-15T17:52:50.289Z,2.20
2023-01-15T17:55:39.648Z,2.28
2023-01-15T17:58:30.014Z,2.05
2023-01-15T18:01:17.523Z,1.85
2023-01-15T18:04:07.116Z,1.90
2023-01-15T18:06:37.674Z,1.67
2023-01-15T18:09:10.061Z,1.85
2023-01-15T18:11:41.009Z,2.30
2023-01-15T18:14:10.393Z,2.15
2023-01-15T18:16:41.269Z,2.28
2023-01-15T18:19:10.864Z,1.83
2023-01-15T18:21:42.845Z,2.37
2023-01-15T18:24:14.702Z,2.00
2023-01-15T18:26:45.427Z,2.08
2023-01-15T18:29:14.919Z,4.65
2023-01-15T18:31:47.603Z,2.00
2023-01-15T18:34:17.540Z,1.67
2023-01-15T18:36:47.870Z,1.70
2023-01-15T18:39:18.673Z,1.75
2023-01-15T18:42:05.618Z,1.60
2023-01-15T18:44:52.464Z,1.95
2023-01-15T18:47:24.224Z,1.80
2023-01-15T18:49:55.292Z,2.42
2023-01-15T18:52:43.217Z,2.60
2023-01-15T18:55:14.269Z,1.70
2023-01-15T18:57:44.276Z,1.45
2023-01-15T19:00:14.644Z,2.13
2023-01-15T19:02:46.795Z,2.05
2023-01-15T19:05:17.633Z,2.15
2023-01-15T19:07:48.641Z,1.80
2023-01-15T19:10:20.689Z,1.70
2023-01-15T19:12:50.841Z,1.60
2023-01-15T19:15:38.926Z,1.85
2023-01-15T19:18:30.475Z,2.25
2023-01-15T19:21:00.806Z,1.77
2023-01-15T19:23:30.518Z,2.08
2023-01-15T19:26:02.828Z,1.77
2023-01-15T19:28:33.626Z,2.50
2023-01-15T19:31:20.316Z,1.67
2023-01-15T19:33:50.258Z,1.65
2023-01-15T19:36:20.298Z,1.98
2023-01-15T19:38:53.320Z,2.58
2023-01-15T19:41:41.597Z,1.50
2023-01-15T19:44:29.362Z,1.40
2023-01-15T19:47:16.587Z,1.95
2023-01-15T19:50:12.303Z,2.10
2023-01-15T19:52:41.875Z,2.20
2023-01-15T19:55:13.950Z,2.38
2023-01-15T19:57:47.706Z,2.60
2023-01-15T20:00:19.588Z,2.15
2023-01-15T20:02:49.461Z,1.88
2023-01-15T20:05:21.064Z,2.65
2023-01-15T20:07:50.955Z,2.13
2023-01-15T20:10:23.534Z,2.10
2023-01-15T20:13:11.951Z,2.30
2023-01-15T20:15:44.164Z,1.92
2023-01-15T20:18:14.267Z,2.20
2023-01-15T20:20:44.040Z,1.85
2023-01-15T20:23:14.922Z,2.40
2023-01-15T20:25:47.671Z,2.30
2023-01-15T20:28:18.663Z,3.17
2023-01-15T20:30:49.411Z,1.73
2023-01-15T20:33:19.772Z,2.22
2023-01-15T20:35:53.153Z,2.00
2023-01-15T20:38:24.088Z,1.92
2023-01-15T20:40:53.754Z,2.13
2023-01-15T20:43:50.603Z,1.70
2023-01-15T20:46:20.697Z,2.63
2023-01-15T20:49:07.236Z,2.05
2023-01-15T20:51:37.338Z,2.03
2023-01-15T20:54:07.983Z,2.05
2023-01-15T20:56:38.016Z,1.75
2023-01-15T20:59:09.044Z,2.13
2023-01-15T21:01:40.778Z,1.60
2023-01-15T21:04:10.941Z,1.40
2023-01-15T21:06:43.657Z,1.20
2023-01-15T21:09:13.105Z,1.60
2023-01-15T21:11:42.824Z,1.50
2023-01-15T21:14:13.686Z,1.33
2023-01-15T21:16:44.962Z,0.93
2023-01-15T21:21:43.933Z,0.95
2023-01-15T21:24:13.382Z,1.25
2023-01-15T21:26:43.219Z,1.00
2023-01-15T21:29:14.090Z,1.30
2023-01-15T21:31:45.494Z,1.30
2023-01-15T21:36:44.383Z,1.73
2023-01-15T21:39:14.978Z,1.73
2023-01-15T21:42:02.787Z,0.70
2023-01-15T21:44:35.309Z,1.08
2023-01-15T21:47:07.268Z,2.42
2023-01-15T21:49:36.669Z,0.98
2023-01-15T21:52:08.266Z,0.98
2023-01-15T21:54:37.580Z,1.55
2023-01-15T21:57:07.691Z,1.00
2023-01-15T21:59:38.990Z,1.65
2023-01-15T22:02:11.635Z,0.95
2023-01-15T22:04:41.669Z,1.30
2023-01-15T22:07:11.572Z,0.65
2023-01-15T22:09:41.280Z,0.80
2023-01-15T22:12:14.411Z,1.13
2023-01-15T22:14:45.366Z,0.85
2023-01-15T22:17:14.975Z,1.08
2023-01-15T22:19:44.870Z,1.23
2023-01-15T22:22:14.623Z,1.23
2023-01-15T22:24:44.100Z,1.00
2023-01-15T22:27:17.494Z,0.70
2023-01-15T22:29:48.312Z,0.75
2023-01-15T22:32:17.938Z,1.10
2023-01-15T22:34:49.553Z,1.52
2023-01-15T22:37:19.297Z,0.70
2023-01-15T22:39:50.222Z,1.25
2023-01-15T22:42:28.016Z,0.75
2023-01-15T22:45:00.734Z,1.05
2023-01-15T22:47:32.214Z,0.73
2023-01-15T22:52:31.281Z,0.65
2023-01-15T22:55:00.772Z,0.80
2023-01-15T22:57:31.460Z,0.70
2023-01-15T23:00:02.206Z,0.97
2023-01-15T23:02:49.228Z,1.08
2023-01-15T23:05:18.868Z,1.15
2023-01-15T23:07:49.061Z,1.00
2023-01-15T23:10:18.804Z,0.70
2023-01-15T23:12:48.626Z,1.48
2023-01-15T23:15:19.480Z,0.82
2023-01-15T23:17:49.443Z,0.80
2023-01-15T23:20:18.888Z,0.75
2023-01-15T23:22:48.573Z,1.17
2023-01-15T23:25:18.110Z,0.50
2023-01-15T23:27:48.509Z,0.60
2023-01-15T23:30:19.850Z,0.88
2023-01-15T23:32:49.555Z,0.93
2023-01-15T23:35:19.035Z,0.65
2023-01-15T23:37:48.814Z,1.00
2023-01-15T23:40:18.358Z,1.10
2023-01-15T23:43:05.002Z,2.47
2023-01-15T23:45:54.907Z,1.02
2023-01-15T23:48:24.702Z,0.70
2023-01-15T23:50:54.270Z,0.73
2023-01-15T23:53:23.901Z,0.70
2023-01-15T23:55:53.323Z,0.63
2023-01-15T23:58:23.200Z,0.70
